Racecast

Chelsea Shill

Vista Del Lago (Folsom) (CA) · 12 · CVCCA D2SJS D3 · Compare head to head

Athlete rating 125.6 2011 XC season
Best race 126.8 TF
Races 41
Seasons 3 2010 — 2012

RankedNation #5409·CA #1027·CA D2 #467·SJS #74·SJS D3 #34·CVC #16·Team #8 ?

Speed rating — all races

Cross Country

XC speed rating

2011 XC 122.0

Vista Del Lago (Folsom) (CA) · Grade 12

Date Meet Event Result Place Rating Difficulty PR/SR Flags
2011-11-26 Woodward Park 5000m 21:41 175th · 6th on team 115.4 +0.013
2011-11-11 Willow Hills Reservoir Course 5000m 20:54 25th · 6th on team 123.6 +0.045 ★CR CSR
2011-11-05 Calaveras County Fairgrounds 4828m 21:34 41st · 5th on team 116.7 +0.065 ★PR ★CR SR CSR
2011-10-08 Woodward Park 5000m 19:48 90th · 5th on team 126.8 +0.013 ★PR ★CR SR CSR RSR
2011-09-24 Stanford University Golf Course 5000m 19:59 46th · 5th on team 124.1 +0.002 ★CR CSR
2011-09-10 Granite Park 5000m 19:58 13th · 2nd on team 125.6 +0.002 PR ★CR SR CSR RSR

Track & Field

TF speed rating

2012 TF 121.2

Vista Del Lago (Folsom) (CA) · Grade 12

Date Meet Event Result Place Rating Difficulty PR/SR Flags
2012-05-17 SJS DIV IV/V Finals 800m 2:33.37 20th · 2nd on team 120.0 -0.024
2012-05-17 SJS DIV IV/V Finals 800m 2:29.06 15th · 1st on team 123.5 -0.024
2012-05-10 SVC League Finals 800m 2:28.1 3rd · 1st on team 124.6 -0.020 SR RSR
2012-04-14 Depth Charge 800m 2:30.31 4th · 1st on team 122.7 -0.020 SR RSR
2012-04-11 SVC meet COHS vs. Vista Del Lago 800m 2:35 2nd · 2nd on team 120.1 -0.017
2012-03-10 Bob King - Don Gilbert Invitational 800m 2:31.16 7th · 2nd on team 121.2 -0.027 SR RSR
2012-03-03 8th Annual Sacramento State Track Classic 1500m 5:17.3 17th · 3rd on team 120.0 -0.032 ★PR SR RSR
2012-03-03 8th Annual Sacramento State Track Classic 800m 2:34.3 12th · 2nd on team 117.8 -0.032 SR

2011 TF 121.6

Vista Del Lago (Folsom) (CA) · Grade 11

Date Meet Event Result Place Rating Difficulty PR/SR Flags
2011-05-26 CIF Sac-Joaquin Section Masters Trials 2011 800m 2:27.9 21st · 1st on team 122.5 -0.037
2011-05-19 Sac Joaquin Division III Finals 800m 2:24.9 4th · 1st on team 126.8 -0.024 ★PR ★R SR RSR
2011-05-19 Sac-Joaquin Division IV-V Trials/Finals 800m 2:24.9 4th · 1st on team 126.8 -0.024
2011-05-19 Sac Joaquin Division III Finals 800m 2:26.93 9th · 2nd on team 125.1 -0.024
2011-05-19 Sac-Joaquin Division IV-V Trials/Finals 800m 2:26.93 9th · 2nd on team 125.1 -0.024
2011-05-17 Sac Joaquin Division III Trials 800m 2:26.93 3rd · 1st on team 125.6 -0.024 SR
2011-05-10 SVC Trials/Finals 800m 2:27.46 8th · 3rd on team 126.2 -0.013
2011-05-10 SVC Trials/Finals 800m 2:27.49 10th · 4th on team 126.2 -0.013
2011-04-29 Cougar Invitational @ El Dorado 1600m 5:56.87 8th · 4th on team 117.1 -0.018
2011-04-15 Woody Wilson Invitational 800m 2:27.45 31st · 2nd on team 123.1 -0.034 SR
2011-04-06 Liberty Ranch/Union Mine @ Vista del Lago 800m 2:42.5 3rd · 1st on team 113.9 -0.017
2011-04-02 Bella Vista Bronco Invitational 800m 2:41.76 20th · 1st on team 112.4 -0.036
2011-04-02 Bella Vista Bronco Invitational 1600m 5:49.64 22nd · 5th on team 117.1 -0.036 SR
2011-03-23 SVC-league meet RC vs Vista vs Eldo 800m 2:29.4 3rd · 2nd on team 126.3 -0.005 R SR RSR
2011-03-16 Galt/Liberty Ranch @ Vista Del Lago 800m 2:40.3 3rd · 2nd on team 115.7 -0.017 SR RSR
2011-03-16 Galt/Liberty Ranch @ Vista Del Lago 1600m 5:59.1 5th · 4th on team 116.3 -0.017 SR RSR

2010 TF 117.3

Vista Del Lago (Folsom) (CA) · Grade 10

Date Meet Event Result Place Rating Difficulty PR/SR Flags
2010-05-14 SVC League Finals 800m 2:26.64 2nd · 2nd on team 124.2 -0.031 PR R SR RSR
2010-05-14 SVC League Finals 800m 2:32.07 5th · 4th on team 119.8 -0.031
2010-05-08 SacTown Races Frosh Soph Invitational 1500m 5:25.6 14th · 4th on team 118.0 -0.024 PR SR
2010-05-08 SacTown Races Frosh Soph Invitational 800m 2:42.1 15th · 3rd on team 113.2 -0.024
2010-04-23 Bronco Roundup Distance Carnival 1600m 5:45.63 21st · 3rd on team 118.2 -0.036 ★PR SR
2010-04-17 Depth Charge 1600m 6:13.03 7th · 2nd on team 111.1 -0.020
2010-04-17 Depth Charge 800m 2:36.97 1st · 1st on team 117.2 -0.020
2010-04-14 Vista del Lago vs. Oak Ridge 800m 2:35.4 5th · 2nd on team 119.1 -0.017 PR R SR RSR
2010-03-26 Cougar COED Relays 1600m 5:52 2nd · 2nd on team 118.2 -0.018 PR R SR RSR
2010-03-24 Galt @ Vista del Lago 1600m 5:55.6 3rd · 3rd on team 116.8 -0.017 PR R SR RSR
2010-03-24 Galt @ Vista del Lago 3200m 13:02.1 2nd · 2nd on team 114.9 -0.017 ★PR SR